Terminal Aerodrome Forecast
Issued by NWS Cleveland, OH

Home | Current Version | Previous Version | Graphics & Text | Print | Product List | Glossary On
Versions: 1 2 3 4 5 6 7 8 9 10 11 12 13 14 15 16 17 18 19 20 21
000
FTUS41 KCLE 242300
TAFYNG
TAF
KYNG 242340Z 2500/2524 25022G32KT P6SM OVC030
     FM250500 25015G25KT P6SM OVC030
     FM251200 24012G22KT P6SM OVC030
     FM252100 25012KT P6SM OVC035=

USA.gov is the U.S. government's official web portal to all federal, state and local government web resources and services.